Time;durP1;ratioP1;P1;durP2;ratioP2;P2;SDS_P1;SDS_P2;PMS_P1;PMS_P2;Temp;Humidity;BMP_temperature;BMP_pressure;BME280_temperature;BME280_humidity;BME280_pressure;Samples;Min_cycle;Max_cycle;Signal;HPM_P1;HPM_P2
2022/09/13 00:00:13;;;;;;;10.13;7.43;;;17.20;99.90;;;;;;5075406;28;20048;-70
2022/09/13 00:02:39;;;;;;;8.88;7.28;;;17.10;99.90;;;;;;5074771;28;20058;-70
2022/09/13 00:05:05;;;;;;;10.02;7.18;;;17.00;99.90;;;;;;5074983;28;20059;-70
2022/09/13 00:07:31;;;;;;;11.98;7.55;;;16.90;99.90;;;;;;5075556;28;20075;-70
2022/09/13 00:09:56;;;;;;;8.57;6.65;;;16.90;99.90;;;;;;5073977;28;20036;-70
2022/09/13 00:12:22;;;;;;;10.98;7.47;;;16.80;99.90;;;;;;5074848;28;20040;-70
2022/09/13 00:14:47;;;;;;;8.77;6.70;;;16.80;99.90;;;;;;5074723;28;20036;-70
2022/09/13 00:17:13;;;;;;;9.40;6.78;;;16.80;99.90;;;;;;5074765;28;20052;-70
2022/09/13 00:19:39;;;;;;;10.63;6.90;;;16.80;99.90;;;;;;5074605;28;20101;-70
2022/09/13 00:22:05;;;;;;;8.75;6.95;;;16.80;99.90;;;;;;5074665;28;20098;-70
2022/09/13 00:24:32;;;;;;;9.05;7.25;;;16.80;99.90;;;;;;5073543;28;20087;-70
2022/09/13 00:26:59;;;;;;;9.57;7.22;;;16.70;99.90;;;;;;5074574;28;20036;-70
2022/09/13 00:29:25;;;;;;;8.43;6.63;;;16.70;99.90;;;;;;5075005;28;20390;-70
2022/09/13 00:31:51;;;;;;;8.00;6.55;;;16.70;99.90;;;;;;5074977;28;20178;-70
2022/09/13 00:34:16;;;;;;;8.55;6.43;;;16.70;99.90;;;;;;5074368;28;20497;-70
2022/09/13 00:36:42;;;;;;;8.20;5.72;;;16.70;99.90;;;;;;5074410;28;20052;-70
2022/09/13 00:39:09;;;;;;;8.00;5.72;;;16.70;99.90;;;;;;5073136;28;20084;-70
2022/09/13 00:41:35;;;;;;;7.05;5.45;;;16.70;99.90;;;;;;5072989;28;20055;-70
2022/09/13 00:44:01;;;;;;;7.78;5.93;;;16.70;99.90;;;;;;5074657;28;20465;-70
2022/09/13 00:46:41;;;;;;;7.47;5.93;;;16.70;99.90;;;;;;5073974;28;20052;-70
2022/09/13 00:49:44;;;;;;;8.70;6.00;;;16.70;99.90;;;;;;5074164;28;20045;-70
2022/09/13 00:52:14;;;;;;;7.82;5.47;;;16.70;99.90;;;;;;5031983;28;20046;-70
2022/09/13 00:54:44;;;;;;;8.18;5.93;;;16.70;99.90;;;;;;5067033;28;20053;-70
2022/09/13 00:57:12;;;;;;;9.25;6.30;;;16.70;99.90;;;;;;5057221;28;20056;-69
2022/09/13 00:59:50;;;;;;;6.82;5.45;;;16.70;99.90;;;;;;5072395;28;20049;-70
2022/09/13 01:02:16;;;;;;;8.00;6.00;;;16.70;99.90;;;;;;5074119;28;20048;-70
2022/09/13 01:04:42;;;;;;;9.10;5.88;;;16.70;99.90;;;;;;5072587;28;20486;-70
2022/09/13 01:07:12;;;;;;;8.07;6.25;;;16.70;99.90;;;;;;5074331;28;20472;-70
2022/09/13 01:09:42;;;;;;;9.25;6.18;;;16.70;99.90;;;;;;5074301;28;20055;-70
2022/09/13 01:12:33;;;;;;;7.97;6.10;;;16.70;99.90;;;;;;5073710;28;20048;-70
2022/09/13 01:15:03;;;;;;;7.78;5.88;;;16.70;99.90;;;;;;5073653;28;20470;-70
2022/09/13 01:17:29;;;;;;;7.75;6.10;;;16.60;99.90;;;;;;5073631;28;20052;-70
2022/09/13 01:19:55;;;;;;;7.68;5.65;;;16.60;99.90;;;;;;5072399;28;20040;-70
2022/09/13 01:22:39;;;;;;;8.50;6.03;;;16.60;99.90;;;;;;5072365;28;20091;-70
2022/09/13 01:25:30;;;;;;;7.13;5.30;;;16.60;99.90;;;;;;5074002;28;20342;-70
2022/09/13 01:28:34;;;;;;;9.15;5.95;;;16.60;99.90;;;;;;5073571;28;20048;-70
2022/09/13 01:31:32;;;;;;;7.68;5.85;;;16.60;99.90;;;;;;5052110;28;20063;-71
2022/09/13 01:34:13;;;;;;;7.82;6.00;;;16.50;99.90;;;;;;5072214;28;20106;-70
2022/09/13 01:37:15;;;;;;;8.50;6.35;;;16.50;99.90;;;;;;5073935;28;20055;-71
2022/09/13 01:39:55;;;;;;;7.28;5.60;;;16.50;99.90;;;;;;5073446;28;20048;-70
2022/09/13 01:42:27;;;;;;;7.95;6.20;;;16.50;99.90;;;;;;5073861;28;20079;-70
2022/09/13 01:45:30;;;;;;;8.43;6.57;;;16.40;99.90;;;;;;5073760;28;20071;-70
2022/09/13 01:48:34;;;;;;;8.75;6.45;;;16.50;99.90;;;;;;5030907;28;20180;-70
2022/09/13 01:51:03;;;;;;;9.93;7.75;;;16.50;99.90;;;;;;5061799;28;20056;-70
2022/09/13 01:53:51;;;;;;;9.85;7.82;;;16.50;99.90;;;;;;5073327;28;20049;-70
2022/09/13 01:56:28;;;;;;;10.07;7.18;;;16.50;99.90;;;;;;5073800;28;20416;-70
2022/09/13 01:59:03;;;;;;;9.50;7.45;;;16.50;99.90;;;;;;5074550;28;20044;-71
2022/09/13 02:01:52;;;;;;;9.95;8.02;;;16.50;99.90;;;;;;5055717;28;20048;-71
2022/09/13 02:04:29;;;;;;;10.35;8.15;;;16.50;99.90;;;;;;5074075;28;20378;-71
2022/09/13 02:07:12;;;;;;;11.82;8.40;;;16.50;99.90;;;;;;5073515;28;20114;-70
2022/09/13 02:09:43;;;;;;;12.13;8.15;;;16.50;99.90;;;;;;5072988;28;20036;-71
2022/09/13 02:12:24;;;;;;;12.57;8.50;;;16.40;99.90;;;;;;5074019;28;20045;-71
2022/09/13 02:15:15;;;;;;;11.60;8.18;;;16.50;99.90;;;;;;5077179;28;20036;-71
2022/09/13 02:17:47;;;;;;;13.15;8.43;;;16.40;99.90;;;;;;5076545;28;20094;-71
2022/09/13 02:20:22;;;;;;;11.00;8.27;;;16.40;99.90;;;;;;5077016;28;20036;-71
2022/09/13 02:22:53;;;;;;;12.32;8.57;;;16.40;99.90;;;;;;5076988;28;20528;-71
2022/09/13 02:25:23;;;;;;;12.50;8.18;;;16.40;99.90;;;;;;5077370;28;20045;-71
2022/09/13 02:27:56;;;;;;;11.05;8.65;;;16.40;99.90;;;;;;5077653;28;20083;-71
2022/09/13 02:30:22;;;;;;;12.05;8.73;;;16.30;99.90;;;;;;5077071;28;20366;-71
2022/09/13 02:32:56;;;;;;;12.30;9.18;;;16.30;99.90;;;;;;5076697;28;20044;-71
2022/09/13 02:35:33;;;;;;;12.13;8.70;;;16.40;99.90;;;;;;5077443;28;20040;-71
2022/09/13 02:38:09;;;;;;;13.18;9.18;;;16.40;99.90;;;;;;5076665;28;20040;-71
2022/09/13 02:40:41;;;;;;;;;;;16.40;99.90;;;;;;5077018;28;20040;-71
2022/09/13 02:43:38;;;;;;;13.50;9.68;;;16.30;99.90;;;;;;5076529;28;20046;-71
2022/09/13 02:46:12;;;;;;;12.65;9.60;;;16.40;99.90;;;;;;5073145;28;20105;-71
2022/09/13 02:48:50;;;;;;;13.75;9.82;;;16.40;99.90;;;;;;5076559;28;20052;-72
2022/09/13 02:51:40;;;;;;;14.18;10.07;;;16.40;99.90;;;;;;5076259;28;20373;-71
2022/09/13 02:54:32;;;;;;;13.20;10.48;;;16.50;99.90;;;;;;5076684;28;20048;-72
2022/09/13 02:57:11;;;;;;;14.20;10.13;;;16.40;99.90;;;;;;5076255;28;20091;-71
2022/09/13 02:59:37;;;;;;;11.55;9.38;;;16.50;99.90;;;;;;5076490;28;20488;-71
2022/09/13 03:02:08;;;;;;;13.98;9.90;;;16.50;99.90;;;;;;5076258;28;20045;-71
2022/09/13 03:04:34;;;;;;;14.27;10.05;;;16.50;99.90;;;;;;5076653;28;20058;-71
2022/09/13 03:07:03;;;;;;;15.95;11.25;;;16.50;99.90;;;;;;5076718;28;20044;-71
2022/09/13 03:09:29;;;;;;;13.90;10.13;;;16.60;99.90;;;;;;5076040;28;20036;-72
2022/09/13 03:12:41;;;;;;;12.52;10.13;;;16.60;99.90;;;;;;5075832;28;20041;-71
2022/09/13 03:15:21;;;;;;;13.70;10.80;;;16.60;99.90;;;;;;5075953;28;20036;-71
2022/09/13 03:18:12;;;;;;;14.82;10.68;;;16.60;99.90;;;;;;5076237;28;20456;-71
2022/09/13 03:20:46;;;;;;;13.10;10.05;;;16.60;99.90;;;;;;5075988;28;20057;-71
2022/09/13 03:23:31;;;;;;;15.02;10.52;;;16.60;99.90;;;;;;5076136;28;20049;-71
2022/09/13 03:26:22;;;;;;;12.50;9.65;;;16.60;99.90;;;;;;5075799;28;20084;-72
2022/09/13 03:29:01;;;;;;;13.65;9.95;;;16.60;99.90;;;;;;5075797;28;20443;-71
2022/09/13 03:31:59;;;;;;;12.48;9.85;;;16.60;99.90;;;;;;5076485;28;20389;-71
2022/09/13 03:34:31;;;;;;;13.07;9.90;;;16.60;99.90;;;;;;5075878;28;20527;-71
2022/09/13 03:37:15;;;;;;;12.65;9.95;;;16.60;99.90;;;;;;5076156;28;20052;-71
2022/09/13 03:39:46;;;;;;;14.90;10.25;;;16.60;99.90;;;;;;5076276;28;20055;-71
2022/09/13 03:42:27;;;;;;;14.32;9.57;;;16.60;99.90;;;;;;5074263;28;20053;-71
2022/09/13 03:44:56;;;;;;;13.07;10.07;;;16.60;99.90;;;;;;5075665;28;20466;-71
2022/09/13 03:47:25;;;;;;;14.20;10.07;;;16.60;99.90;;;;;;5075908;28;20385;-71
2022/09/13 03:49:52;;;;;;;13.27;9.90;;;16.60;99.90;;;;;;5075396;28;20135;-71
2022/09/13 03:52:18;;;;;;;14.05;9.98;;;16.60;99.90;;;;;;5075323;28;20048;-71
2022/09/13 03:54:44;;;;;;;14.18;10.00;;;16.70;99.90;;;;;;5075185;28;20135;-72
2022/09/13 03:57:16;;;;;;;13.07;10.18;;;16.70;99.90;;;;;;5076021;28;20076;-72
2022/09/13 03:59:59;;;;;;;13.52;10.43;;;16.70;99.90;;;;;;5075169;28;20127;-71
2022/09/13 04:02:25;;;;;;;14.55;10.23;;;16.70;99.90;;;;;;5075592;28;20040;-72
2022/09/13 04:04:51;;;;;;;14.52;11.00;;;16.70;99.90;;;;;;5058170;28;20381;-72
2022/09/13 04:07:19;;;;;;;12.95;9.70;;;16.70;99.90;;;;;;5075496;28;20049;-72
2022/09/13 04:09:45;;;;;;;14.25;10.77;;;16.70;99.90;;;;;;5074847;28;20048;-72
2022/09/13 04:12:15;;;;;;;12.18;9.43;;;16.70;99.90;;;;;;5074713;28;20523;-72
2022/09/13 04:14:42;;;;;;;12.93;10.07;;;16.70;99.90;;;;;;5074884;28;20068;-72
2022/09/13 04:17:07;;;;;;;15.73;10.43;;;16.70;99.90;;;;;;5075365;28;20048;-72
2022/09/13 04:19:33;;;;;;;11.88;9.57;;;16.70;99.90;;;;;;5073696;28;20052;-72
2022/09/13 04:21:59;;;;;;;13.65;9.55;;;16.70;99.90;;;;;;5074429;28;20051;-72
2022/09/13 04:24:26;;;;;;;15.35;9.80;;;16.80;99.90;;;;;;5074594;28;20044;-72
2022/09/13 04:26:53;;;;;;;13.77;9.82;;;16.70;99.90;;;;;;5075328;28;20052;-72
2022/09/13 04:29:20;;;;;;;12.27;9.63;;;16.70;99.90;;;;;;5075072;28;20057;-72
2022/09/13 04:31:47;;;;;;;14.05;9.98;;;16.70;99.90;;;;;;5074913;28;20380;-72
2022/09/13 04:34:12;;;;;;;12.95;9.95;;;16.70;99.90;;;;;;5074589;28;20145;-72
2022/09/13 04:36:38;;;;;;;15.27;9.80;;;16.70;99.90;;;;;;5072848;28;20083;-72
2022/09/13 04:39:04;;;;;;;13.88;9.88;;;16.70;99.90;;;;;;5074393;28;20052;-72
2022/09/13 04:41:32;;;;;;;11.68;9.65;;;16.70;99.90;;;;;;5074035;28;20048;-72
2022/09/13 04:43:57;;;;;;;15.57;9.07;;;16.70;99.90;;;;;;5074265;28;20106;-71
2022/09/13 04:46:23;;;;;;;13.57;9.57;;;16.80;99.90;;;;;;5072729;28;20044;-72
2022/09/13 04:48:49;;;;;;;13.65;9.45;;;16.80;99.90;;;;;;5074124;28;20037;-72
2022/09/13 04:51:16;;;;;;;13.20;8.90;;;16.80;99.90;;;;;;5074340;28;20470;-72
2022/09/13 04:53:43;;;;;;;12.90;9.05;;;16.80;99.90;;;;;;5074099;28;20056;-72
2022/09/13 04:56:11;;;;;;;13.45;9.05;;;16.80;99.90;;;;;;5074595;28;20047;-73
2022/09/13 04:58:36;;;;;;;12.40;8.63;;;16.80;99.90;;;;;;5073747;28;20389;-72
2022/09/13 05:01:04;;;;;;;11.65;8.57;;;16.90;99.90;;;;;;5073651;28;20051;-73
2022/09/13 05:03:31;;;;;;;13.55;8.93;;;16.90;99.90;;;;;;5072620;28;20095;-73
2022/09/13 05:06:18;;;;;;;13.45;8.90;;;16.90;99.90;;;;;;5073739;28;20041;-72
2022/09/13 05:08:54;;;;;;;14.00;8.93;;;16.90;99.90;;;;;;5073188;28;20420;-72
2022/09/13 05:11:21;;;;;;;11.37;8.97;;;16.90;99.90;;;;;;5074654;28;20048;-73
2022/09/13 05:13:58;;;;;;;12.23;8.30;;;16.90;99.90;;;;;;5073442;28;20278;-73
2022/09/13 05:16:26;;;;;;;12.02;8.38;;;16.90;99.90;;;;;;5073744;28;20048;-72
2022/09/13 05:18:52;;;;;;;12.27;8.73;;;17.00;99.90;;;;;;5074332;28;20059;-73
2022/09/13 05:21:19;;;;;;;10.43;7.35;;;16.90;99.90;;;;;;5073652;28;20049;-73
2022/09/13 05:23:48;;;;;;;11.88;7.72;;;17.00;99.90;;;;;;5073504;28;20063;-73
2022/09/13 05:26:14;;;;;;;11.52;7.32;;;17.00;99.90;;;;;;5073909;28;20186;-72
2022/09/13 05:28:39;;;;;;;11.48;8.40;;;17.00;99.90;;;;;;5072755;28;20127;-73
2022/09/13 05:31:09;;;;;;;10.05;7.90;;;17.00;99.90;;;;;;5073078;28;20210;-73
2022/09/13 05:33:37;;;;;;;10.95;7.47;;;17.10;99.90;;;;;;5073177;28;20480;-73
2022/09/13 05:36:04;;;;;;;12.15;8.10;;;17.10;99.90;;;;;;5074142;28;20115;-73
2022/09/13 05:38:31;;;;;;;12.82;8.43;;;17.10;99.90;;;;;;5073268;28;20127;-73
2022/09/13 05:40:59;;;;;;;11.55;7.95;;;17.10;99.90;;;;;;5073323;28;20044;-73
2022/09/13 05:43:26;;;;;;;10.23;7.65;;;17.10;99.90;;;;;;5073071;28;20060;-72
2022/09/13 05:46:06;;;;;;;11.27;7.97;;;17.20;99.90;;;;;;5072963;28;20127;-73
2022/09/13 05:48:33;;;;;;;9.15;7.03;;;17.20;99.90;;;;;;5073034;28;20056;-72
2022/09/13 05:51:07;;;;;;;10.68;7.93;;;17.20;99.90;;;;;;5073149;28;20118;-72
2022/09/13 05:53:33;;;;;;;10.52;7.47;;;17.20;99.90;;;;;;5073904;28;20101;-72
2022/09/13 05:55:59;;;;;;;12.90;7.95;;;17.20;99.90;;;;;;5073156;28;20070;-73
2022/09/13 05:58:25;;;;;;;13.13;7.80;;;17.30;99.90;;;;;;5073083;28;20040;-73
2022/09/13 06:00:55;;;;;;;10.38;7.47;;;17.30;99.90;;;;;;5073161;28;20047;-72
2022/09/13 06:03:22;;;;;;;10.32;7.53;;;17.30;99.90;;;;;;5074162;28;20061;-73
2022/09/13 06:05:48;;;;;;;11.43;7.32;;;17.30;99.90;;;;;;5075670;28;20083;-73
2022/09/13 06:08:13;;;;;;;11.70;7.38;;;17.30;99.90;;;;;;5072358;28;20095;-73
2022/09/13 06:10:39;;;;;;;11.57;7.40;;;17.30;99.90;;;;;;5073544;28;20044;-73
2022/09/13 06:13:05;;;;;;;10.30;7.35;;;17.30;99.90;;;;;;5073043;28;20473;-73
2022/09/13 06:15:31;;;;;;;12.70;7.90;;;17.30;99.90;;;;;;5071770;28;20036;-67
2022/09/13 06:17:56;;;;;;;11.05;7.28;;;17.40;99.90;;;;;;5073221;28;20131;-67
2022/09/13 06:20:22;;;;;;;9.30;6.97;;;17.30;99.90;;;;;;5073212;28;20389;-67
2022/09/13 06:22:48;;;;;;;10.02;6.78;;;17.40;99.90;;;;;;5072891;28;20400;-67
2022/09/13 06:25:14;;;;;;;8.25;6.13;;;17.30;99.90;;;;;;5072910;28;20040;-66
2022/09/13 06:27:40;;;;;;;9.30;5.75;;;17.30;99.90;;;;;;5073655;28;20092;-66
2022/09/13 06:30:07;;;;;;;8.32;5.95;;;17.40;99.90;;;;;;5072810;28;20052;-67
2022/09/13 06:32:34;;;;;;;8.23;6.28;;;17.40;99.90;;;;;;5071437;28;20048;-67
2022/09/13 06:34:59;;;;;;;8.20;5.82;;;17.30;99.90;;;;;;5072686;28;20124;-66
2022/09/13 06:37:25;;;;;;;8.05;5.93;;;17.30;99.90;;;;;;5073096;28;20430;-67
2022/09/13 06:39:51;;;;;;;11.02;6.22;;;17.40;99.90;;;;;;5072666;28;20113;-66
2022/09/13 06:42:17;;;;;;;7.65;6.07;;;17.40;99.90;;;;;;5072915;28;20076;-67
2022/09/13 06:44:44;;;;;;;9.07;6.07;;;17.40;99.90;;;;;;5072613;28;20091;-67
2022/09/13 06:47:11;;;;;;;8.57;6.00;;;17.40;99.90;;;;;;5072707;28;20132;-67
2022/09/13 06:49:38;;;;;;;6.53;4.15;;;17.40;99.90;;;;;;5072556;28;20119;-67
2022/09/13 06:52:04;;;;;;;7.57;5.15;;;17.40;99.90;;;;;;5073135;28;20048;-67
2022/09/13 06:54:29;;;;;;;6.35;4.03;;;17.40;99.90;;;;;;5072569;28;20047;-67
2022/09/13 06:56:55;;;;;;;4.60;2.30;;;17.40;99.90;;;;;;5072589;28;20075;-66
2022/09/13 06:59:21;;;;;;;3.47;2.28;;;17.30;99.90;;;;;;5076107;28;20097;-67
2022/09/13 07:01:46;;;;;;;5.20;2.33;;;17.30;99.90;;;;;;5076175;28;20092;-66
2022/09/13 07:04:18;;;;;;;4.40;2.40;;;17.20;99.90;;;;;;5076352;28;20052;-67
2022/09/13 07:06:48;;;;;;;5.18;2.63;;;17.20;99.90;;;;;;5076199;28;20105;-67
2022/09/13 07:09:20;;;;;;;4.65;2.50;;;17.20;99.90;;;;;;5076046;28;20575;-67
2022/09/13 07:11:48;;;;;;;3.60;2.50;;;17.20;99.90;;;;;;5075847;28;20501;-67
2022/09/13 07:14:16;;;;;;;4.90;2.65;;;17.20;99.90;;;;;;5076046;28;20160;-67
2022/09/13 07:16:42;;;;;;;4.72;3.00;;;17.20;99.90;;;;;;5076786;28;20048;-67
2022/09/13 07:19:17;;;;;;;4.57;3.00;;;17.20;99.90;;;;;;5075977;28;20492;-67
2022/09/13 07:21:43;;;;;;;4.68;2.00;;;17.20;99.90;;;;;;5074750;28;20076;-67
2022/09/13 07:24:09;;;;;;;4.55;2.50;;;17.20;99.90;;;;;;5076023;28;20085;-66
2022/09/13 07:26:35;;;;;;;3.88;2.10;;;17.20;99.90;;;;;;5075572;28;20048;-66
2022/09/13 07:29:05;;;;;;;3.75;2.25;;;17.20;99.90;;;;;;5075703;28;20587;-66
2022/09/13 07:31:42;;;;;;;3.10;2.10;;;17.30;99.90;;;;;;5075651;28;20044;-66
2022/09/13 07:34:16;;;;;;;3.45;2.00;;;17.30;99.90;;;;;;5074731;28;20473;-66
2022/09/13 07:36:43;;;;;;;3.75;2.03;;;17.30;99.90;;;;;;5074411;28;20079;-66
2022/09/13 07:39:09;;;;;;;2.67;1.88;;;17.30;99.90;;;;;;5075471;28;20056;-66
2022/09/13 07:41:36;;;;;;;4.53;1.67;;;17.30;99.90;;;;;;5075931;28;20041;-66
2022/09/13 07:44:03;;;;;;;3.67;2.00;;;17.30;99.90;;;;;;5074740;28;20086;-67
2022/09/13 07:46:31;;;;;;;4.18;2.00;;;17.30;99.90;;;;;;5074103;28;20536;-66
2022/09/13 07:48:58;;;;;;;3.38;1.50;;;17.40;99.90;;;;;;5074417;28;20086;-67
2022/09/13 07:51:32;;;;;;;3.35;1.30;;;17.40;99.90;;;;;;5074931;28;20554;-67
2022/09/13 07:54:00;;;;;;;4.05;1.50;;;17.40;99.90;;;;;;5075383;28;20052;-66
2022/09/13 07:56:35;;;;;;;3.40;1.30;;;17.40;99.90;;;;;;5074207;28;20501;-67
2022/09/13 07:59:03;;;;;;;3.33;1.13;;;17.50;99.90;;;;;;5074866;28;20489;-67
2022/09/13 08:01:39;;;;;;;3.63;1.20;;;17.60;99.90;;;;;;5075145;28;20036;-67
2022/09/13 08:04:06;;;;;;;;;;;17.50;99.90;;;;;;5075418;28;20057;-66
2022/09/13 08:06:33;;;;;;;2.63;1.20;;;17.60;99.90;;;;;;5074977;28;20024;-67
2022/09/13 08:08:59;;;;;;;5.53;1.73;;;17.60;99.90;;;;;;5074619;28;20461;-66
2022/09/13 08:11:32;;;;;;;4.00;1.60;;;17.60;99.90;;;;;;5075476;28;20044;-67
2022/09/13 08:13:58;;;;;;;2.95;1.33;;;17.60;99.90;;;;;;5075445;28;20048;-66
2022/09/13 08:16:26;;;;;;;2.85;1.25;;;17.70;99.90;;;;;;5073785;28;20059;-66
2022/09/13 08:18:54;;;;;;;3.83;1.33;;;17.70;99.90;;;;;;5074729;28;20040;-65
2022/09/13 08:21:20;;;;;;;2.60;1.00;;;17.80;99.90;;;;;;5074713;28;20048;-67
2022/09/13 08:23:46;;;;;;;2.97;1.00;;;18.00;99.90;;;;;;5074632;28;20093;-66
2022/09/13 08:26:12;;;;;;;3.08;1.25;;;18.10;99.90;;;;;;5074605;28;20079;-67
2022/09/13 08:28:39;;;;;;;2.45;0.93;;;18.10;99.90;;;;;;5074611;28;20558;-67
2022/09/13 08:31:07;;;;;;;3.70;1.10;;;18.20;99.90;;;;;;5074556;28;20075;-66
2022/09/13 08:33:33;;;;;;;2.35;1.10;;;18.20;99.90;;;;;;5073252;28;20052;-65
2022/09/13 08:36:00;;;;;;;3.40;1.05;;;18.30;99.90;;;;;;5074347;28;20106;-65
2022/09/13 08:38:26;;;;;;;3.38;1.10;;;18.20;99.90;;;;;;5074282;28;20538;-65
2022/09/13 08:41:01;;;;;;;3.60;1.27;;;18.30;99.90;;;;;;5074504;28;20056;-66
2022/09/13 08:43:49;;;;;;;1.85;0.90;;;18.30;99.90;;;;;;5074808;28;20036;-66
2022/09/13 08:46:48;;;;;;;3.25;1.02;;;18.40;99.90;;;;;;5074451;28;20040;-66
2022/09/13 08:49:22;;;;;;;3.00;0.90;;;18.40;99.90;;;;;;5040183;28;20052;-66
2022/09/13 08:51:50;;;;;;;4.68;0.90;;;18.40;99.90;;;;;;5074062;28;20051;-66
2022/09/13 08:54:19;;;;;;;4.63;1.00;;;18.50;99.90;;;;;;5074063;28;20041;-66
2022/09/13 08:57:04;;;;;;;3.63;0.80;;;18.70;99.90;;;;;;5073696;28;20528;-67
2022/09/13 09:00:22;;;;;;;1.40;0.65;;;18.80;99.90;;;;;;5073277;28;20036;-66
2022/09/13 09:02:56;;;;;;;;;;;18.80;99.90;;;;;;5069739;28;20414;-65
2022/09/13 09:05:28;;;;;;;2.78;1.00;;;18.90;99.90;;;;;;5073900;28;20014;-65
2022/09/13 09:08:14;;;;;;;2.20;0.70;;;19.10;99.90;;;;;;5073792;28;20055;-66
2022/09/13 09:10:46;;;;;;;2.65;0.75;;;19.10;99.90;;;;;;5074321;28;20044;-66
2022/09/13 09:13:16;;;;;;;2.17;0.75;;;19.00;99.90;;;;;;5074542;28;20430;-66
2022/09/13 09:15:47;;;;;;;3.40;0.60;;;19.10;99.90;;;;;;5074205;28;20386;-67
2022/09/13 09:18:17;;;;;;;1.00;0.50;;;19.00;99.90;;;;;;5073686;28;20080;-66
2022/09/13 09:20:46;;;;;;;2.17;0.65;;;18.90;99.90;;;;;;5073178;28;20482;-65
2022/09/13 09:23:19;;;;;;;3.72;0.70;;;18.80;99.90;;;;;;5073767;28;20377;-66
2022/09/13 09:25:45;;;;;;;1.10;0.55;;;18.90;99.90;;;;;;5073486;28;20070;-67
2022/09/13 09:28:17;;;;;;;1.60;0.55;;;19.00;99.90;;;;;;5073483;28;20045;-66
2022/09/13 09:30:56;;;;;;;1.55;0.63;;;19.10;99.90;;;;;;5074058;28;20044;-65
2022/09/13 09:33:30;;;;;;;2.85;0.90;;;19.30;99.90;;;;;;5073268;28;20044;-65
2022/09/13 09:36:17;;;;;;;1.77;0.70;;;19.50;99.90;;;;;;5073699;28;20036;-65
2022/09/13 09:38:43;;;;;;;1.63;0.57;;;19.60;99.90;;;;;;5073367;28;20044;-65
2022/09/13 09:41:15;;;;;;;3.50;0.63;;;19.50;99.90;;;;;;5073328;28;20088;-65
2022/09/13 09:43:51;;;;;;;2.22;0.70;;;19.40;99.90;;;;;;5073311;28;20056;-65
2022/09/13 09:46:23;;;;;;;1.77;0.60;;;19.30;99.90;;;;;;5073250;28;20078;-65
2022/09/13 09:48:53;;;;;;;2.47;0.63;;;19.20;99.90;;;;;;5073308;28;20040;-65
2022/09/13 09:51:21;;;;;;;1.35;0.50;;;19.00;99.90;;;;;;5073541;28;20055;-65
2022/09/13 09:53:50;;;;;;;1.10;0.60;;;19.00;99.90;;;;;;5073608;28;20389;-65
2022/09/13 09:56:29;;;;;;;2.00;0.70;;;19.10;99.90;;;;;;5073139;28;20040;-65
2022/09/13 09:58:55;;;;;;;3.45;0.70;;;19.30;99.90;;;;;;5072786;28;20407;-65
2022/09/13 10:01:36;;;;;;;1.88;0.60;;;19.40;99.90;;;;;;5073094;28;20055;-65
2022/09/13 10:04:10;;;;;;;1.42;0.88;;;19.60;99.90;;;;;;5073318;28;20073;-65
2022/09/13 10:06:40;;;;;;;1.13;0.50;;;19.70;99.90;;;;;;5073554;28;20094;-67
2022/09/13 10:09:18;;;;;;;1.98;0.50;;;19.80;99.90;;;;;;5073002;28;20056;-67
2022/09/13 10:11:55;;;;;;;1.15;0.40;;;19.90;99.90;;;;;;5073624;28;20055;-66
2022/09/13 10:14:45;;;;;;;3.38;0.80;;;19.90;99.90;;;;;;5073020;28;20130;-66
2022/09/13 10:17:24;;;;;;;1.42;0.45;;;19.80;99.90;;;;;;5073209;28;20044;-66
2022/09/13 10:20:00;;;;;;;1.85;0.55;;;19.50;99.90;;;;;;5073246;28;20127;-66
2022/09/13 10:22:27;;;;;;;1.52;0.55;;;19.30;99.90;;;;;;5073880;28;20052;-67
2022/09/13 10:24:54;;;;;;;1.10;0.52;;;19.30;99.90;;;;;;5073923;28;20040;-67
2022/09/13 10:27:25;;;;;;;2.78;0.60;;;19.40;99.90;;;;;;5073049;28;20048;-66
2022/09/13 10:29:58;;;;;;;2.08;0.50;;;19.60;99.90;;;;;;5072954;28;20048;-67
2022/09/13 10:32:25;;;;;;;1.85;0.60;;;19.80;99.90;;;;;;5073001;28;20098;-66
2022/09/13 10:34:52;;;;;;;1.10;0.50;;;19.80;99.90;;;;;;5076405;28;20040;-66
2022/09/13 10:37:24;;;;;;;3.03;0.60;;;19.90;99.90;;;;;;5076973;28;20053;-66
2022/09/13 10:40:16;;;;;;;1.02;0.50;;;19.90;99.90;;;;;;5077252;28;20041;-66
2022/09/13 10:43:00;;;;;;;2.08;0.50;;;20.00;99.90;;;;;;5077163;28;20105;-67
2022/09/13 10:45:29;;;;;;;2.35;0.50;;;20.00;99.90;;;;;;5076781;28;20460;-67
2022/09/13 10:48:04;;;;;;;2.47;0.60;;;19.90;99.90;;;;;;5077052;28;20097;-66
2022/09/13 10:50:30;;;;;;;1.65;0.63;;;19.80;99.90;;;;;;5076754;28;20045;-65
2022/09/13 10:52:58;;;;;;;1.88;0.60;;;19.80;99.90;;;;;;5076180;28;20055;-65
2022/09/13 10:55:35;;;;;;;1.63;0.40;;;19.80;99.90;;;;;;5076405;28;20118;-65
2022/09/13 10:58:01;;;;;;;1.88;0.50;;;19.80;99.90;;;;;;5076661;28;20373;-65
2022/09/13 11:01:08;;;;;;;2.28;0.60;;;20.00;99.90;;;;;;5077051;28;20051;-65
2022/09/13 11:03:56;;;;;;;3.63;0.70;;;20.20;99.90;;;;;;5076027;28;20103;-65
2022/09/13 11:06:25;;;;;;;2.00;0.55;;;20.40;99.90;;;;;;5076334;28;20477;-65
2022/09/13 11:09:11;;;;;;;2.92;0.60;;;20.50;99.90;;;;;;5076088;28;20085;-65
2022/09/13 11:11:52;;;;;;;1.38;0.45;;;20.50;99.90;;;;;;5076908;28;20118;-65
2022/09/13 11:14:48;;;;;;;1.77;0.70;;;20.20;99.90;;;;;;5075929;28;20110;-66
2022/09/13 11:17:58;;;;;;;1.58;0.52;;;20.10;99.90;;;;;;5076127;28;20059;-67
2022/09/13 11:20:36;;;;;;;1.25;0.40;;;20.20;99.90;;;;;;5064750;28;20060;-66
2022/09/13 11:23:11;;;;;;;3.13;0.50;;;20.40;99.90;;;;;;5075898;28;20178;-67
2022/09/13 11:26:08;;;;;;;1.65;0.45;;;20.40;99.90;;;;;;5075749;28;20041;-67
2022/09/13 11:28:52;;;;;;;2.08;0.50;;;20.50;99.90;;;;;;5074646;28;20051;-67
2022/09/13 11:31:39;;;;;;;1.52;0.35;;;20.60;99.90;;;;;;5075655;28;20088;-66
2022/09/13 11:34:12;;;;;;;1.83;0.40;;;20.60;99.90;;;;;;5075570;28;20448;-66
2022/09/13 11:36:37;;;;;;;1.88;0.40;;;20.70;99.90;;;;;;5076121;28;20044;-66
2022/09/13 11:39:29;;;;;;;1.33;0.40;;;20.60;99.90;;;;;;5075332;28;20415;-66
2022/09/13 11:42:10;;;;;;;1.75;0.40;;;20.70;99.90;;;;;;5076072;28;20063;-66
2022/09/13 11:44:59;;;;;;;2.67;0.40;;;20.80;99.90;;;;;;5075765;28;20044;-66
2022/09/13 11:47:27;;;;;;;2.25;0.40;;;20.80;99.90;;;;;;5075370;28;20049;-66
2022/09/13 11:50:19;;;;;;;1.77;0.70;;;20.80;99.90;;;;;;5075626;28;20054;-66
2022/09/13 11:53:06;;;;;;;1.73;0.50;;;20.80;99.90;;;;;;5075319;28;20055;-67
2022/09/13 11:55:44;;;;;;;1.70;0.40;;;20.80;99.90;;;;;;5074055;28;20052;-66
2022/09/13 11:58:20;;;;;;;1.55;0.52;;;20.80;99.90;;;;;;5075222;28;20048;-67
2022/09/13 12:00:57;;;;;;;1.85;0.50;;;20.70;99.90;;;;;;5075259;28;20044;-67
2022/09/13 12:03:41;;;;;;;1.08;0.50;;;20.60;99.90;;;;;;5075790;28;20052;-67
2022/09/13 12:06:18;;;;;;;3.35;0.60;;;20.60;99.90;;;;;;5074057;28;20183;-66
2022/09/13 12:08:48;;;;;;;2.00;0.40;;;20.70;99.90;;;;;;5074084;28;20284;-66
2022/09/13 12:11:29;;;;;;;1.70;0.47;;;20.60;99.90;;;;;;5074924;28;20448;-66
2022/09/13 12:14:02;;;;;;;1.02;0.40;;;20.50;99.90;;;;;;5074862;28;20044;-66
2022/09/13 12:16:33;;;;;;;1.55;0.50;;;20.60;99.90;;;;;;5075028;28;20068;-66
2022/09/13 12:19:23;;;;;;;1.75;0.60;;;20.60;99.90;;;;;;5075366;28;20041;-65
2022/09/13 12:21:51;;;;;;;2.88;0.50;;;20.60;99.90;;;;;;5075016;28;20048;-66
2022/09/13 12:24:20;;;;;;;1.92;0.50;;;20.50;99.90;;;;;;5074434;28;20044;-66
2022/09/13 12:27:02;;;;;;;1.23;0.40;;;20.60;99.90;;;;;;5074738;28;20504;-66
2022/09/13 12:29:27;;;;;;;4.10;0.57;;;20.50;99.90;;;;;;5074614;28;20588;-66
2022/09/13 12:32:01;;;;;;;1.50;0.50;;;20.50;99.90;;;;;;5074428;28;20063;-66
2022/09/13 12:34:38;;;;;;;2.05;0.60;;;20.60;99.90;;;;;;5074416;28;20051;-66
2022/09/13 12:37:30;;;;;;;1.17;0.50;;;20.60;99.90;;;;;;5074452;28;20048;-65
2022/09/13 12:40:28;;;;;;;2.13;0.50;;;20.60;99.90;;;;;;5058303;28;20489;-64
2022/09/13 12:43:27;;;;;;;1.85;0.60;;;20.60;99.90;;;;;;5072155;28;20401;-64
2022/09/13 12:46:05;;;;;;;2.25;0.50;;;20.60;99.90;;;;;;5074184;28;20040;-64
2022/09/13 12:48:46;;;;;;;0.90;0.40;;;20.60;99.90;;;;;;5073919;28;20090;-65
2022/09/13 12:51:31;;;;;;;2.65;0.55;;;20.60;99.90;;;;;;5075183;28;20056;-64
2022/09/13 12:54:21;;;;;;;1.52;0.43;;;20.70;99.90;;;;;;5072911;28;20049;-64
2022/09/13 12:56:55;;;;;;;1.27;0.50;;;20.70;99.90;;;;;;5072944;28;20147;-65
2022/09/13 12:59:41;;;;;;;1.92;0.55;;;20.90;99.90;;;;;;5073927;28;20068;-65
2022/09/13 13:02:30;;;;;;;1.53;0.40;;;21.00;99.90;;;;;;5073777;28;20044;-63
2022/09/13 13:05:04;;;;;;;1.58;0.50;;;21.00;99.90;;;;;;5074095;28;20295;-63
2022/09/13 13:07:34;;;;;;;1.67;0.52;;;21.00;99.90;;;;;;5073831;28;20481;-64
2022/09/13 13:10:00;;;;;;;2.00;0.63;;;21.10;99.90;;;;;;5073818;28;20052;-65
2022/09/13 13:12:32;;;;;;;1.05;0.40;;;21.00;99.90;;;;;;5073796;28;20080;-66
2022/09/13 13:15:29;;;;;;;2.53;0.50;;;20.90;99.90;;;;;;5073701;28;20047;-65